Time;durP1;ratioP1;P1;durP2;ratioP2;P2;SDS_P1;SDS_P2;PMS_P1;PMS_P2;Temp;Humidity;BMP_temperature;BMP_pressure;BME280_temperature;BME280_humidity;BME280_pressure;Samples;Min_cycle;Max_cycle;Signal;HPM_P1;HPM_P2
2022/07/24 00:01:37;;;;;;;5.22;3.00;;;;;;;;;;1739517;82;21052;-65
2022/07/24 00:04:04;;;;;;;3.55;2.80;;;;;;;;;;1685342;84;21056;-65
2022/07/24 00:06:31;;;;;;;4.62;3.20;;;;;;;;;;1726728;82;21591;-65
2022/07/24 00:08:58;;;;;;;3.90;2.95;;;;;;;;;;1742294;82;21001;-66
2022/07/24 00:11:24;;;;;;;3.90;2.60;;;;;;;;;;1742662;82;21035;-65
2022/07/24 00:13:51;;;;;;;3.58;2.92;;;;;;;;;;1744891;82;21009;-65
2022/07/24 00:16:17;;;;;;;3.37;3.02;;;;;;;;;;1745110;82;21120;-65
2022/07/24 00:18:44;;;;;;;3.80;3.47;;;;;;;;;;1742632;82;21037;-65
2022/07/24 00:21:10;;;;;;;4.12;3.00;;;;;;;;;;1719756;82;21060;-65
2022/07/24 00:23:39;;;;;;;3.45;2.90;;;;;;;;;;1746442;82;21501;-65
2022/07/24 00:26:06;;;;;;;4.40;2.80;;;;;;;;;;1745055;82;21088;-65
2022/07/24 00:28:32;;;;;;;4.08;2.83;;;;;;;;;;1747445;82;20977;-66
2022/07/24 00:30:58;;;;;;;6.47;3.45;;;;;;;;;;1727189;82;22176;-65
2022/07/24 00:33:26;;;;;;;4.12;3.10;;;;;;;;;;1738764;82;21021;-65
2022/07/24 00:35:52;;;;;;;4.05;3.20;;;;;;;;;;1746666;82;21564;-66
2022/07/24 00:38:19;;;;;;;3.80;3.08;;;;;;;;;;1747394;82;21056;-65
2022/07/24 00:40:45;;;;;;;5.00;2.90;;;;;;;;;;1746929;81;21052;-65
2022/07/24 00:43:12;;;;;;;3.60;3.08;;;;;;;;;;1724460;82;21572;-65
2022/07/24 00:45:40;;;;;;;3.55;3.25;;;;;;;;;;1744301;82;21080;-65
2022/07/24 00:48:06;;;;;;;4.65;3.22;;;;;;;;;;1744033;81;21493;-65
2022/07/24 00:50:33;;;;;;;4.45;3.00;;;;;;;;;;1739259;81;21548;-65
2022/07/24 00:52:59;;;;;;;10.05;3.20;;;;;;;;;;1729493;81;21048;-65
2022/07/24 00:55:25;;;;;;;3.40;3.10;;;;;;;;;;1753018;82;21052;-65
2022/07/24 00:57:53;;;;;;;4.83;3.05;;;;;;;;;;1753244;81;21168;-66
2022/07/24 01:03:27;;;;;;;4.92;2.87;;;;;;;;;;1739571;79;74781;-61
2022/07/24 01:09:11;;;;;;;6.47;3.80;;;;;;;;;;1754186;82;21044;-61
2022/07/24 01:11:40;;;;;;;4.40;3.52;;;;;;;;;;1754084;82;21004;-61
2022/07/24 01:14:06;;;;;;;4.12;3.17;;;;;;;;;;1754447;82;21096;-62
2022/07/24 01:16:33;;;;;;;3.60;3.02;;;;;;;;;;1754301;82;21498;-63
2022/07/24 01:18:59;;;;;;;3.45;2.80;;;;;;;;;;1754319;82;21599;-61
2022/07/24 01:21:26;;;;;;;3.65;3.08;;;;;;;;;;1754018;82;21478;-61
2022/07/24 01:23:52;;;;;;;4.53;3.20;;;;;;;;;;1754084;82;21060;-61
2022/07/24 01:26:18;;;;;;;3.47;2.95;;;;;;;;;;1754272;82;21009;-60
2022/07/24 01:28:45;;;;;;;3.30;3.00;;;;;;;;;;1754014;82;21064;-61
2022/07/24 01:31:11;;;;;;;3.40;3.02;;;;;;;;;;1753996;82;21531;-64
2022/07/24 01:33:37;;;;;;;3.22;2.92;;;;;;;;;;1754266;82;21016;-62
2022/07/24 01:36:04;;;;;;;5.20;3.10;;;;;;;;;;1754261;82;21056;-61
2022/07/24 01:38:30;;;;;;;7.42;3.30;;;;;;;;;;1754559;82;21029;-62
2022/07/24 01:40:56;;;;;;;6.10;3.20;;;;;;;;;;1754194;82;21064;-61
2022/07/24 01:43:23;;;;;;;3.33;3.02;;;;;;;;;;1754579;82;21052;-63
2022/07/24 01:45:49;;;;;;;6.08;3.08;;;;;;;;;;1754058;82;21084;-62
2022/07/24 01:48:16;;;;;;;4.83;3.02;;;;;;;;;;1754510;82;21523;-62
2022/07/24 01:50:44;;;;;;;3.40;3.10;;;;;;;;;;1754152;82;21060;-62
2022/07/24 01:53:10;;;;;;;5.28;3.17;;;;;;;;;;1754141;82;21013;-62
2022/07/24 01:55:36;;;;;;;4.35;3.30;;;;;;;;;;1754222;82;21024;-62
2022/07/24 01:58:02;;;;;;;11.05;3.12;;;;;;;;;;1754300;82;21046;-62
2022/07/24 02:00:29;;;;;;;5.30;3.25;;;;;;;;;;1754449;82;21076;-62
2022/07/24 02:02:55;;;;;;;3.65;3.10;;;;;;;;;;1754182;82;21048;-62
2022/07/24 02:05:22;;;;;;;3.62;3.27;;;;;;;;;;1764607;80;21098;-59
2022/07/24 02:07:50;;;;;;;5.28;3.30;;;;;;;;;;1755721;82;21542;-61
2022/07/24 02:10:17;;;;;;;4.33;3.20;;;;;;;;;;1764799;80;21036;-61
2022/07/24 02:12:43;;;;;;;3.90;3.35;;;;;;;;;;1792767;80;22104;-62
2022/07/24 02:15:10;;;;;;;3.65;3.00;;;;;;;;;;1790637;80;21068;-62
2022/07/24 02:17:37;;;;;;;3.72;2.95;;;;;;;;;;1786040;80;21064;-62
2022/07/24 02:20:03;;;;;;;3.50;3.20;;;;;;;;;;1789696;79;21540;-61
2022/07/24 02:22:29;;;;;;;6.03;3.05;;;;;;;;;;1790171;80;21475;-62
2022/07/24 02:24:56;;;;;;;3.70;3.40;;;;;;;;;;1790422;80;21096;-61
2022/07/24 02:27:22;;;;;;;4.72;3.40;;;;;;;;;;1772338;80;21091;-62
2022/07/24 02:29:50;;;;;;;5.60;3.40;;;;;;;;;;1762144;80;21591;-62
2022/07/24 02:32:16;;;;;;;4.45;3.40;;;;;;;;;;1770567;80;21031;-60
2022/07/24 02:34:42;;;;;;;5.80;3.45;;;;;;;;;;1783091;79;21088;-61
2022/07/24 02:37:08;;;;;;;4.20;2.98;;;;;;;;;;1791928;80;21124;-62
2022/07/24 02:39:35;;;;;;;5.12;3.65;;;;;;;;;;1792305;80;21512;-62
2022/07/24 02:42:01;;;;;;;4.00;3.17;;;;;;;;;;1764864;80;21064;-62
2022/07/24 02:44:27;;;;;;;4.33;3.20;;;;;;;;;;1784747;80;21033;-62
2022/07/24 02:46:53;;;;;;;4.40;3.47;;;;;;;;;;1790473;80;21032;-62
2022/07/24 02:49:19;;;;;;;5.37;3.10;;;;;;;;;;1790129;80;21543;-62
2022/07/24 02:51:45;;;;;;;5.67;3.60;;;;;;;;;;1791862;80;21016;-62
2022/07/24 02:54:11;;;;;;;4.90;3.22;;;;;;;;;;1785372;80;21038;-61
2022/07/24 02:56:37;;;;;;;3.95;3.20;;;;;;;;;;1785104;80;21052;-61
2022/07/24 02:59:04;;;;;;;4.22;3.02;;;;;;;;;;1791082;80;21028;-61
2022/07/24 03:01:30;;;;;;;4.50;3.25;;;;;;;;;;1790936;80;21511;-61
2022/07/24 03:03:56;;;;;;;3.50;2.90;;;;;;;;;;1788725;80;21614;-61
2022/07/24 03:06:22;;;;;;;5.15;3.33;;;;;;;;;;1784470;80;21048;-62
2022/07/24 03:08:49;;;;;;;3.92;3.33;;;;;;;;;;1756213;81;21076;-62
2022/07/24 03:11:15;;;;;;;5.08;3.10;;;;;;;;;;1738399;82;21024;-62
2022/07/24 03:13:41;;;;;;;4.47;3.50;;;;;;;;;;1735690;82;21544;-61
2022/07/24 03:16:08;;;;;;;5.53;3.20;;;;;;;;;;1722349;83;21060;-62
2022/07/24 03:18:34;;;;;;;3.90;3.20;;;;;;;;;;1729633;83;21072;-61
2022/07/24 03:21:00;;;;;;;3.52;3.00;;;;;;;;;;1728544;83;21041;-62
2022/07/24 03:23:26;;;;;;;4.12;3.17;;;;;;;;;;1722651;83;21100;-61
2022/07/24 03:25:54;;;;;;;4.37;3.30;;;;;;;;;;1702568;83;20990;-61
2022/07/24 03:28:20;;;;;;;3.60;3.00;;;;;;;;;;1755560;81;21044;-62
2022/07/24 03:30:47;;;;;;;5.05;3.47;;;;;;;;;;1753365;81;21023;-62
2022/07/24 03:33:13;;;;;;;5.85;3.40;;;;;;;;;;1747044;81;21050;-62
2022/07/24 03:35:39;;;;;;;4.42;3.47;;;;;;;;;;1733066;81;22072;-61
2022/07/24 03:38:05;;;;;;;6.58;5.08;;;;;;;;;;1727913;83;21058;-61
2022/07/24 03:40:32;;;;;;;8.68;5.47;;;;;;;;;;1746731;81;21058;-61
2022/07/24 03:42:59;;;;;;;9.68;5.65;;;;;;;;;;1728392;81;21030;-62
2022/07/24 03:45:26;;;;;;;8.38;5.55;;;;;;;;;;1755230;81;21262;-61
2022/07/24 03:47:52;;;;;;;8.88;6.50;;;;;;;;;;1743024;81;21055;-62
2022/07/24 03:50:18;;;;;;;9.05;5.97;;;;;;;;;;1742287;81;21042;-62
2022/07/24 03:52:45;;;;;;;7.65;4.55;;;;;;;;;;1745013;81;21524;-62
2022/07/24 03:55:11;;;;;;;6.00;4.05;;;;;;;;;;1736118;81;21581;-62
2022/07/24 03:57:37;;;;;;;5.37;3.67;;;;;;;;;;1731580;81;21597;-62
2022/07/24 04:00:04;;;;;;;4.80;3.27;;;;;;;;;;1730566;81;21038;-62
2022/07/24 04:02:32;;;;;;;7.87;3.62;;;;;;;;;;1756651;81;20976;-62
2022/07/24 04:05:00;;;;;;;4.42;2.72;;;;;;;;;;1732364;81;21052;-62
2022/07/24 04:07:26;;;;;;;4.20;3.15;;;;;;;;;;1731312;82;21574;-62
2022/07/24 04:09:52;;;;;;;4.25;2.77;;;;;;;;;;1720376;82;21489;-62
2022/07/24 04:12:18;;;;;;;3.62;3.22;;;;;;;;;;1721447;82;21019;-62
2022/07/24 04:14:45;;;;;;;3.62;3.00;;;;;;;;;;1740674;81;21499;-61
2022/07/24 04:17:11;;;;;;;3.42;2.77;;;;;;;;;;1748698;82;21040;-62
2022/07/24 04:19:39;;;;;;;4.40;2.92;;;;;;;;;;1746904;82;21023;-62
2022/07/24 04:22:06;;;;;;;4.47;2.90;;;;;;;;;;1768949;81;21073;-63
2022/07/24 04:24:33;;;;;;;3.25;2.85;;;;;;;;;;1773480;80;21056;-63
2022/07/24 04:26:59;;;;;;;4.15;2.60;;;;;;;;;;1770794;81;21021;-62
2022/07/24 04:29:25;;;;;;;4.62;3.10;;;;;;;;;;1773700;81;21009;-63
2022/07/24 04:31:52;;;;;;;5.55;2.95;;;;;;;;;;1773704;81;21029;-62
2022/07/24 04:34:18;;;;;;;3.10;2.80;;;;;;;;;;1773645;81;21092;-62
2022/07/24 04:36:44;;;;;;;7.08;3.17;;;;;;;;;;1758694;80;21577;-63
2022/07/24 04:39:10;;;;;;;3.60;2.60;;;;;;;;;;1770045;80;21029;-62
2022/07/24 04:41:37;;;;;;;4.00;2.80;;;;;;;;;;1781634;79;21005;-61
2022/07/24 04:44:04;;;;;;;4.97;2.80;;;;;;;;;;1784602;80;21084;-61
2022/07/24 04:46:30;;;;;;;3.67;2.80;;;;;;;;;;1784353;80;21064;-62
2022/07/24 04:48:56;;;;;;;3.92;2.72;;;;;;;;;;1784770;80;21024;-62
2022/07/24 04:51:22;;;;;;;3.75;3.00;;;;;;;;;;1770228;80;21524;-63
2022/07/24 04:53:48;;;;;;;3.80;2.80;;;;;;;;;;1782355;80;21025;-62
2022/07/24 04:56:14;;;;;;;3.90;3.00;;;;;;;;;;1782969;79;21476;-62
2022/07/24 04:58:41;;;;;;;10.93;3.50;;;;;;;;;;1782784;80;21013;-62
2022/07/24 05:01:07;;;;;;;4.08;2.80;;;;;;;;;;1755918;80;21084;-62
2022/07/24 05:03:33;;;;;;;4.42;2.75;;;;;;;;;;1753694;82;21111;-62
2022/07/24 05:05:59;;;;;;;4.83;2.80;;;;;;;;;;1771974;80;21088;-62
2022/07/24 05:08:26;;;;;;;4.22;2.75;;;;;;;;;;1748498;82;21057;-62
2022/07/24 05:10:52;;;;;;;29.67;4.65;;;;;;;;;;1764655;80;21033;-62
2022/07/24 05:13:18;;;;;;;4.40;2.80;;;;;;;;;;1761044;80;21057;-62
2022/07/24 05:15:46;;;;;;;3.30;2.58;;;;;;;;;;1782939;80;21492;-62
2022/07/24 05:18:12;;;;;;;4.67;2.70;;;;;;;;;;1784506;80;21092;-62
2022/07/24 05:20:38;;;;;;;3.35;2.42;;;;;;;;;;1783465;80;21115;-62
2022/07/24 05:23:06;;;;;;;3.08;2.40;;;;;;;;;;1755795;79;21107;-62
2022/07/24 05:25:32;;;;;;;11.40;3.10;;;;;;;;;;1758492;80;21028;-62
2022/07/24 05:27:58;;;;;;;3.37;2.62;;;;;;;;;;1784438;80;21476;-62
2022/07/24 05:30:24;;;;;;;6.85;2.85;;;;;;;;;;1772527;80;21049;-62
2022/07/24 05:32:50;;;;;;;3.05;2.60;;;;;;;;;;1777841;79;21057;-63
2022/07/24 05:35:17;;;;;;;3.00;2.70;;;;;;;;;;1781936;80;21100;-63
2022/07/24 05:37:43;;;;;;;4.05;2.70;;;;;;;;;;1783599;79;21034;-62
2022/07/24 05:40:10;;;;;;;3.77;2.67;;;;;;;;;;1767785;79;21535;-63
2022/07/24 05:42:36;;;;;;;3.25;2.90;;;;;;;;;;1759492;80;21032;-63
2022/07/24 05:45:04;;;;;;;4.75;2.55;;;;;;;;;;1773098;80;21076;-62
2022/07/24 05:47:37;;;;;;;3.55;2.40;;;;;;;;;;1783529;80;21115;-63
2022/07/24 05:50:05;;;;;;;3.92;2.70;;;;;;;;;;1775322;80;21208;-62
2022/07/24 05:52:32;;;;;;;3.58;2.50;;;;;;;;;;1770744;80;21066;-62
2022/07/24 05:54:58;;;;;;;5.70;2.92;;;;;;;;;;1762837;80;21029;-62
2022/07/24 05:57:24;;;;;;;5.00;2.70;;;;;;;;;;1780591;80;22366;-62
2022/07/24 05:59:50;;;;;;;4.83;2.87;;;;;;;;;;1766514;79;21040;-62
2022/07/24 06:02:16;;;;;;;3.25;2.37;;;;;;;;;;1801013;79;21033;-63
2022/07/24 06:04:43;;;;;;;4.03;2.70;;;;;;;;;;1774622;79;21131;-62
2022/07/24 06:07:09;;;;;;;5.47;2.40;;;;;;;;;;1775720;79;20962;-63
2022/07/24 06:09:36;;;;;;;3.92;2.52;;;;;;;;;;1760862;80;21113;-62
2022/07/24 06:12:03;;;;;;;11.85;3.00;;;;;;;;;;1804883;79;20990;-63
2022/07/24 06:14:29;;;;;;;3.22;2.35;;;;;;;;;;1798554;79;21052;-62
2022/07/24 06:16:56;;;;;;;3.87;2.42;;;;;;;;;;1769496;79;21544;-62
2022/07/24 06:19:22;;;;;;;3.55;2.47;;;;;;;;;;1738566;80;21090;-62
2022/07/24 06:21:49;;;;;;;4.72;2.67;;;;;;;;;;1716667;83;21085;-61
2022/07/24 06:24:15;;;;;;;3.15;2.40;;;;;;;;;;1731782;81;21010;-61
2022/07/24 06:26:41;;;;;;;6.22;2.25;;;;;;;;;;1702711;83;21096;-62
2022/07/24 06:29:09;;;;;;;2.62;2.30;;;;;;;;;;1781277;80;21076;-63
2022/07/24 06:31:35;;;;;;;3.12;2.30;;;;;;;;;;1778736;80;21525;-63
2022/07/24 06:34:01;;;;;;;4.30;2.47;;;;;;;;;;1757567;80;20971;-63
2022/07/24 06:36:27;;;;;;;4.97;2.75;;;;;;;;;;1764766;79;20993;-63
2022/07/24 06:38:53;;;;;;;4.80;3.22;;;;;;;;;;1770481;80;20992;-62
2022/07/24 06:41:20;;;;;;;6.87;3.00;;;;;;;;;;1773482;79;21044;-62
2022/07/24 06:43:46;;;;;;;2.72;2.30;;;;;;;;;;1740506;82;21112;-62
2022/07/24 06:46:12;;;;;;;5.35;2.47;;;;;;;;;;1704273;83;21051;-63
2022/07/24 06:48:38;;;;;;;2.80;2.20;;;;;;;;;;1713166;83;20940;-62
2022/07/24 06:51:04;;;;;;;4.83;2.30;;;;;;;;;;1732894;81;20979;-63
2022/07/24 06:53:31;;;;;;;6.12;2.50;;;;;;;;;;1737306;80;20974;-63
2022/07/24 06:55:57;;;;;;;3.60;2.20;;;;;;;;;;1731847;82;20958;-62
2022/07/24 06:58:23;;;;;;;8.28;2.92;;;;;;;;;;1746656;80;21341;-62
2022/07/24 07:00:49;;;;;;;5.10;2.35;;;;;;;;;;1717225;82;21830;-63
2022/07/24 07:03:15;;;;;;;5.10;2.15;;;;;;;;;;1774004;80;21384;-62
2022/07/24 07:05:42;;;;;;;5.85;2.50;;;;;;;;;;1780963;80;20997;-62
2022/07/24 07:08:08;;;;;;;3.60;2.27;;;;;;;;;;1788605;78;20986;-62
2022/07/24 07:10:34;;;;;;;3.40;2.27;;;;;;;;;;1768990;78;20981;-63
2022/07/24 07:13:00;;;;;;;3.85;2.42;;;;;;;;;;1791685;79;20969;-63
2022/07/24 07:15:26;;;;;;;2.40;2.20;;;;;;;;;;1773930;78;21455;-63
2022/07/24 07:17:52;;;;;;;6.87;2.20;;;;;;;;;;1770635;80;20976;-63
2022/07/24 07:20:18;;;;;;;2.95;2.30;;;;;;;;;;1778846;79;21009;-62
2022/07/24 07:22:44;;;;;;;3.60;2.47;;;;;;;;;;1789821;79;21020;-62
2022/07/24 07:25:10;;;;;;;3.85;2.12;;;;;;;;;;1777816;78;22194;-63
2022/07/24 07:27:37;;;;;;;2.60;2.33;;;;;;;;;;1783355;80;21030;-62
2022/07/24 07:30:04;;;;;;;3.10;2.33;;;;;;;;;;1771105;80;21067;-63
2022/07/24 07:32:30;;;;;;;4.42;2.20;;;;;;;;;;1779970;80;20968;-63
2022/07/24 07:34:56;;;;;;;2.87;2.22;;;;;;;;;;1779051;79;21000;-62
2022/07/24 07:37:22;;;;;;;6.08;2.42;;;;;;;;;;1789826;78;20977;-62
2022/07/24 07:39:48;;;;;;;36.20;4.25;;;;;;;;;;1788534;78;21496;-63
2022/07/24 07:42:14;;;;;;;4.28;2.40;;;;;;;;;;1726850;81;20977;-63
2022/07/24 07:44:40;;;;;;;4.28;2.33;;;;;;;;;;1724628;81;21109;-67
2022/07/24 07:47:06;;;;;;;4.78;2.50;;;;;;;;;;1731516;82;20981;-69
2022/07/24 07:49:32;;;;;;;3.22;2.50;;;;;;;;;;1752361;80;20986;-69
2022/07/24 07:51:59;;;;;;;3.58;2.30;;;;;;;;;;1754142;80;21064;-67
2022/07/24 07:54:25;;;;;;;6.50;2.72;;;;;;;;;;1763246;80;21097;-62
2022/07/24 07:56:51;;;;;;;5.17;2.40;;;;;;;;;;1745641;80;21302;-62
2022/07/24 07:59:17;;;;;;;21.62;4.35;;;;;;;;;;1755991;81;21100;-63
2022/07/24 08:04:35;;;;;;;3.00;2.52;;;;;;;;;;1788132;79;22861;-63
2022/07/24 08:07:02;;;;;;;8.68;2.75;;;;;;;;;;1761299;81;21052;-63
2022/07/24 08:09:28;;;;;;;4.78;2.50;;;;;;;;;;1761555;81;21111;-63
2022/07/24 08:11:55;;;;;;;5.72;2.67;;;;;;;;;;1763042;80;21050;-63
2022/07/24 08:14:21;;;;;;;7.85;2.90;;;;;;;;;;1779720;80;21039;-62
2022/07/24 08:16:48;;;;;;;5.80;2.60;;;;;;;;;;1777092;80;21060;-62
2022/07/24 08:19:14;;;;;;;3.37;2.77;;;;;;;;;;1761447;81;21063;-63
2022/07/24 08:21:41;;;;;;;9.55;2.92;;;;;;;;;;1737335;81;20989;-62
2022/07/24 08:24:07;;;;;;;7.25;2.85;;;;;;;;;;1746673;81;21092;-63
2022/07/24 08:26:33;;;;;;;3.15;2.47;;;;;;;;;;1759009;81;21061;-63
2022/07/24 08:29:00;;;;;;;4.50;2.80;;;;;;;;;;1761951;81;21102;-63
2022/07/24 08:31:26;;;;;;;4.50;2.72;;;;;;;;;;1758294;81;21614;-63
2022/07/24 08:33:52;;;;;;;6.45;2.60;;;;;;;;;;1756817;81;21017;-63
2022/07/24 08:36:18;;;;;;;6.97;2.58;;;;;;;;;;1753094;82;21108;-63
2022/07/24 08:38:44;;;;;;;5.40;2.40;;;;;;;;;;1753291;82;21033;-62
2022/07/24 08:41:11;;;;;;;3.85;2.40;;;;;;;;;;1750990;81;21073;-62
2022/07/24 08:43:39;;;;;;;3.25;2.60;;;;;;;;;;1733927;82;21123;-62
2022/07/24 08:46:07;;;;;;;4.10;2.60;;;;;;;;;;1729976;81;21516;-63
2022/07/24 08:48:33;;;;;;;3.72;2.37;;;;;;;;;;1731149;83;21087;-63
2022/07/24 08:51:00;;;;;;;4.37;2.50;;;;;;;;;;1731318;83;21537;-61
2022/07/24 08:53:26;;;;;;;6.30;3.60;;;;;;;;;;1731128;83;21075;-63
2022/07/24 08:55:53;;;;;;;6.17;2.67;;;;;;;;;;1738841;81;21063;-63
2022/07/24 08:58:19;;;;;;;21.37;3.87;;;;;;;;;;1761244;81;21028;-63
2022/07/24 09:00:46;;;;;;;3.83;2.55;;;;;;;;;;1756911;81;21532;-63
2022/07/24 09:03:12;;;;;;;3.00;2.67;;;;;;;;;;1759344;81;21091;-63
2022/07/24 09:05:54;;;;;;;7.45;2.60;;;;;;;;;;1756393;82;21492;-64
2022/07/24 09:08:20;;;;;;;4.20;2.55;;;;;;;;;;1754926;82;21060;-63
2022/07/24 09:10:56;;;;;;;5.70;2.65;;;;;;;;;;1756045;82;21130;-62
2022/07/24 09:13:23;;;;;;;4.50;2.60;;;;;;;;;;1754972;81;21115;-63
2022/07/24 09:15:50;;;;;;;4.22;2.70;;;;;;;;;;1726064;82;21068;-63
2022/07/24 09:18:25;;;;;;;10.68;2.60;;;;;;;;;;1755823;82;21175;-63
2022/07/24 09:20:51;;;;;;;4.75;2.70;;;;;;;;;;1756044;82;21114;-63
2022/07/24 09:23:19;;;;;;;3.08;2.47;;;;;;;;;;1755969;81;21111;-62
2022/07/24 09:25:47;;;;;;;3.00;2.70;;;;;;;;;;1754126;82;21543;-63
2022/07/24 09:28:13;;;;;;;3.72;2.90;;;;;;;;;;1755202;81;21535;-63
2022/07/24 09:30:42;;;;;;;5.87;3.33;;;;;;;;;;1756031;82;21071;-63
2022/07/24 09:33:14;;;;;;;3.95;2.90;;;;;;;;;;1755807;81;21092;-63
2022/07/24 09:35:42;;;;;;;4.95;2.77;;;;;;;;;;1755884;81;21071;-63
2022/07/24 09:38:09;;;;;;;6.30;2.80;;;;;;;;;;1754721;82;21060;-63
2022/07/24 09:40:36;;;;;;;4.28;2.80;;;;;;;;;;1753015;80;21025;-63
2022/07/24 09:43:14;;;;;;;50.08;7.20;;;;;;;;;;1748869;81;21064;-63
2022/07/24 09:45:56;;;;;;;3.55;2.98;;;;;;;;;;1754514;81;21026;-62
2022/07/24 09:48:24;;;;;;;4.05;2.50;;;;;;;;;;1752727;80;21018;-62
2022/07/24 09:50:51;;;;;;;3.75;2.67;;;;;;;;;;1751677;81;21543;-62
2022/07/24 09:53:18;;;;;;;8.70;3.10;;;;;;;;;;1750239;82;21516;-62
2022/07/24 09:55:44;;;;;;;4.55;2.60;;;;;;;;;;1749952;82;21029;-62
2022/07/24 09:58:12;;;;;;;8.65;3.10;;;;;;;;;;1755316;81;21568;-62
2022/07/24 10:00:40;;;;;;;4.35;2.50;;;;;;;;;;1753500;82;21536;-63
2022/07/24 10:03:06;;;;;;;6.58;2.90;;;;;;;;;;1753847;82;21072;-63
2022/07/24 10:05:32;;;;;;;3.35;2.65;;;;;;;;;;1747603;81;21029;-63
2022/07/24 10:07:58;;;;;;;3.12;2.58;;;;;;;;;;1739490;82;21081;-63
2022/07/24 10:10:25;;;;;;;5.40;2.92;;;;;;;;;;1739438;82;21081;-63
2022/07/24 10:12:53;;;;;;;3.27;2.67;;;;;;;;;;1740583;81;21049;-63
2022/07/24 10:15:21;;;;;;;4.83;3.00;;;;;;;;;;1739248;82;21030;-63
2022/07/24 10:18:09;;;;;;;9.30;3.10;;;;;;;;;;1739900;81;21045;-62
2022/07/24 10:20:39;;;;;;;6.17;2.60;;;;;;;;;;1717250;83;21052;-63
2022/07/24 10:23:06;;;;;;;9.13;2.90;;;;;;;;;;1717916;83;21071;-63
2022/07/24 10:25:34;;;;;;;5.45;2.40;;;;;;;;;;1717816;83;21116;-63
2022/07/24 10:28:01;;;;;;;4.67;2.60;;;;;;;;;;1716717;83;21123;-63
2022/07/24 10:30:29;;;;;;;5.45;2.65;;;;;;;;;;1717777;83;21516;-63
2022/07/24 10:32:55;;;;;;;4.00;2.55;;;;;;;;;;1730340;81;21627;-62
2022/07/24 10:35:23;;;;;;;9.13;3.33;;;;;;;;;;1747075;81;21048;-63
2022/07/24 10:37:54;;;;;;;5.45;2.65;;;;;;;;;;1747307;82;21072;-63
2022/07/24 10:40:22;;;;;;;3.95;2.67;;;;;;;;;;1747186;82;21189;-63
2022/07/24 10:43:08;;;;;;;3.83;2.55;;;;;;;;;;1747310;82;21073;-62
2022/07/24 10:45:35;;;;;;;3.37;2.40;;;;;;;;;;1747057;82;21108;-62
2022/07/24 10:48:22;;;;;;;3.60;2.70;;;;;;;;;;1746493;81;21009;-64
2022/07/24 10:50:59;;;;;;;6.22;2.75;;;;;;;;;;1732666;83;21109;-63
2022/07/24 10:53:26;;;;;;;3.72;3.15;;;;;;;;;;1733209;83;21089;-62
2022/07/24 10:55:54;;;;;;;4.65;2.67;;;;;;;;;;1732773;83;21042;-62
2022/07/24 10:58:21;;;;;;;7.33;2.80;;;;;;;;;;1738120;81;21528;-62
2022/07/24 11:00:49;;;;;;;13.30;3.60;;;;;;;;;;1739224;82;21073;-62
2022/07/24 11:03:26;;;;;;;5.35;2.70;;;;;;;;;;1740026;82;21186;-63
2022/07/24 11:06:10;;;;;;;3.77;2.50;;;;;;;;;;1747481;82;21100;-63
2022/07/24 11:08:39;;;;;;;9.15;2.87;;;;;;;;;;1751254;81;22265;-63
2022/07/24 11:11:07;;;;;;;9.68;2.87;;;;;;;;;;1753263;81;21113;-63
2022/07/24 11:13:41;;;;;;;3.42;2.50;;;;;;;;;;1747745;81;21060;-63
2022/07/24 11:16:12;;;;;;;15.48;3.58;;;;;;;;;;1744403;81;21037;-63
2022/07/24 11:18:38;;;;;;;5.45;3.05;;;;;;;;;;1752111;81;21080;-63
2022/07/24 11:21:05;;;;;;;3.70;2.87;;;;;;;;;;1760020;81;21009;-62
2022/07/24 11:23:31;;;;;;;3.50;3.10;;;;;;;;;;1770596;81;21027;-63
2022/07/24 11:26:20;;;;;;;5.47;2.87;;;;;;;;;;1755448;81;21555;-73
2022/07/24 11:28:46;;;;;;;4.62;3.00;;;;;;;;;;1752250;81;22176;-74
2022/07/24 11:31:12;;;;;;;4.42;3.30;;;;;;;;;;1750045;81;21001;-71
2022/07/24 11:33:38;;;;;;;7.85;3.80;;;;;;;;;;1724779;80;21352;-70
2022/07/24 11:36:08;;;;;;;4.22;3.40;;;;;;;;;;1748538;81;21508;-71
2022/07/24 11:38:34;;;;;;;9.03;5.28;;;;;;;;;;1745400;81;20973;-71
2022/07/24 11:41:06;;;;;;;7.22;5.72;;;;;;;;;;1749676;82;21108;-71
2022/07/24 11:43:34;;;;;;;9.75;5.75;;;;;;;;;;1752324;81;21532;-70
2022/07/24 11:46:00;;;;;;;17.07;6.83;;;;;;;;;;1755635;82;21080;-70
2022/07/24 11:48:27;;;;;;;10.45;6.03;;;;;;;;;;1762706;81;21032;-70
2022/07/24 11:51:03;;;;;;;7.67;6.67;;;;;;;;;;1759369;81;21002;-70
2022/07/24 11:53:30;;;;;;;11.30;6.47;;;;;;;;;;1748934;81;21060;-69
2022/07/24 11:56:05;;;;;;;8.68;6.67;;;;;;;;;;1750569;81;21099;-70
2022/07/24 11:58:33;;;;;;;9.73;6.97;;;;;;;;;;1755043;81;20988;-70
2022/07/24 12:00:59;;;;;;;8.00;7.03;;;;;;;;;;1732517;81;21107;-70
2022/07/24 12:03:27;;;;;;;8.00;6.17;;;;;;;;;;1768897;80;21564;-69
2022/07/24 12:05:54;;;;;;;12.07;7.08;;;;;;;;;;1771002;81;21036;-69
2022/07/24 12:08:26;;;;;;;8.63;6.80;;;;;;;;;;1749599;81;21066;-70
2022/07/24 12:10:59;;;;;;;10.07;6.77;;;;;;;;;;1746291;81;21571;-69
2022/07/24 12:13:25;;;;;;;9.05;7.55;;;;;;;;;;1747656;82;21060;-69
2022/07/24 12:15:51;;;;;;;11.20;7.35;;;;;;;;;;1743154;81;21006;-69
2022/07/24 12:31:17;;;;;;;9.28;7.62;;;;;;;;;;1740621;81;22383;-64
2022/07/24 12:33:46;;;;;;;8.43;6.80;;;;;;;;;;1700829;84;21103;-64
2022/07/24 12:36:13;;;;;;;11.53;7.20;;;;;;;;;;1696800;84;21123;-64
2022/07/24 12:38:40;;;;;;;8.48;6.80;;;;;;;;;;1695577;83;21032;-65
2022/07/24 12:41:10;;;;;;;8.55;7.65;;;;;;;;;;1695207;84;21032;-63
2022/07/24 12:43:49;;;;;;;49.20;43.83;;;;;;;;;;1714351;83;21075;-63
2022/07/24 12:46:16;;;;;;;24.35;21.23;;;;;;;;;;1700397;83;21064;-67
2022/07/24 12:49:01;;;;;;;16.82;12.47;;;;;;;;;;1696670;84;21595;-63
2022/07/24 12:51:49;;;;;;;10.55;8.00;;;;;;;;;;1703082;83;21072;-65
2022/07/24 12:54:17;;;;;;;11.55;7.60;;;;;;;;;;1701727;83;21068;-65
2022/07/24 12:56:44;;;;;;;8.38;7.55;;;;;;;;;;1714601;83;20991;-65
2022/07/24 12:59:12;;;;;;;8.88;7.97;;;;;;;;;;1720180;83;21020;-65
2022/07/24 13:01:52;;;;;;;9.98;8.13;;;;;;;;;;1712672;83;21076;-66
2022/07/24 13:04:20;;;;;;;9.45;8.33;;;;;;;;;;1702823;84;21520;-65
2022/07/24 13:06:48;;;;;;;10.85;8.40;;;;;;;;;;1709711;83;21039;-66
2022/07/24 13:09:15;;;;;;;15.95;9.10;;;;;;;;;;1718155;83;21068;-66
2022/07/24 13:11:42;;;;;;;11.75;10.00;;;;;;;;;;1715305;83;21064;-65
2022/07/24 13:14:09;;;;;;;12.18;8.53;;;;;;;;;;1699016;83;21052;-65
2022/07/24 13:16:37;;;;;;;10.30;9.15;;;;;;;;;;1702753;83;21099;-67
2022/07/24 13:19:04;;;;;;;11.60;9.38;;;;;;;;;;1710238;83;21516;-68
2022/07/24 13:21:32;;;;;;;14.75;13.13;;;;;;;;;;1719280;82;21134;-66
2022/07/24 13:23:58;;;;;;;16.77;14.73;;;;;;;;;;1738969;82;21597;-65
2022/07/24 13:26:24;;;;;;;69.10;58.50;;;;;;;;;;1726565;83;21023;-67
2022/07/24 13:28:52;;;;;;;11.55;10.35;;;;;;;;;;1733248;82;21027;-65
2022/07/24 13:31:21;;;;;;;10.38;8.60;;;;;;;;;;1725471;82;21055;-65
2022/07/24 13:33:48;;;;;;;23.32;20.90;;;;;;;;;;1737030;82;21082;-64
2022/07/24 13:36:15;;;;;;;18.77;16.73;;;;;;;;;;1728709;81;21558;-65
2022/07/24 13:38:41;;;;;;;16.85;15.23;;;;;;;;;;1742626;82;21083;-64
2022/07/24 13:41:07;;;;;;;10.82;7.95;;;;;;;;;;1731120;83;21017;-66
2022/07/24 13:43:34;;;;;;;9.13;7.53;;;;;;;;;;1737072;81;21484;-65
2022/07/24 13:46:00;;;;;;;8.93;7.37;;;;;;;;;;1733116;82;21605;-65
2022/07/24 13:48:26;;;;;;;9.65;8.28;;;;;;;;;;1740223;81;21103;-64
2022/07/24 13:50:54;;;;;;;8.30;7.47;;;;;;;;;;1740121;81;21099;-64
2022/07/24 13:53:20;;;;;;;11.03;7.95;;;;;;;;;;1736110;81;21537;-67
2022/07/24 13:55:46;;;;;;;9.13;7.65;;;;;;;;;;1730917;82;21070;-74
2022/07/24 13:58:13;;;;;;;10.32;7.53;;;;;;;;;;1738591;82;21055;-68
2022/07/24 14:00:39;;;;;;;9.00;7.90;;;;;;;;;;1731234;81;21044;-70
2022/07/24 14:03:06;;;;;;;9.60;8.03;;;;;;;;;;1727857;83;21584;-71
2022/07/24 14:05:32;;;;;;;9.68;7.87;;;;;;;;;;1728990;83;21045;-70
2022/07/24 14:07:59;;;;;;;8.88;7.97;;;;;;;;;;1718012;82;21054;-64
2022/07/24 14:10:27;;;;;;;9.33;7.53;;;;;;;;;;1733527;82;21582;-67
2022/07/24 14:12:53;;;;;;;10.82;7.92;;;;;;;;;;1729120;81;21401;-66
2022/07/24 14:15:22;;;;;;;9.23;7.65;;;;;;;;;;1734057;82;21062;-65
2022/07/24 14:17:48;;;;;;;58.05;51.95;;;;;;;;;;1731780;82;21023;-66
2022/07/24 14:20:14;;;;;;;47.13;36.70;;;;;;;;;;1739358;82;21622;-67
2022/07/24 14:22:41;;;;;;;14.98;12.88;;;;;;;;;;1746466;82;21424;-65
2022/07/24 14:25:07;;;;;;;8.45;7.47;;;;;;;;;;1751629;82;21066;-66
2022/07/24 14:27:34;;;;;;;9.45;7.65;;;;;;;;;;1734289;81;21082;-64
2022/07/24 14:30:00;;;;;;;11.18;7.65;;;;;;;;;;1731484;81;21059;-67
2022/07/24 14:32:26;;;;;;;9.18;7.65;;;;;;;;;;1738186;81;21039;-66
2022/07/24 14:34:52;;;;;;;8.65;7.53;;;;;;;;;;1723838;83;21090;-65
2022/07/24 14:37:19;;;;;;;9.25;7.20;;;;;;;;;;1731476;81;20992;-67
2022/07/24 14:39:45;;;;;;;7.95;7.05;;;;;;;;;;1734932;81;21082;-68
2022/07/24 14:42:11;;;;;;;7.42;6.62;;;;;;;;;;1739524;82;21063;-66
2022/07/24 14:44:37;;;;;;;8.30;6.97;;;;;;;;;;1730617;82;21047;-66
2022/07/24 14:47:06;;;;;;;7.90;6.95;;;;;;;;;;1732780;82;21102;-65
2022/07/24 14:49:34;;;;;;;8.75;7.85;;;;;;;;;;1732909;81;21098;-65
2022/07/24 14:52:00;;;;;;;11.35;7.40;;;;;;;;;;1732364;81;20937;-67
2022/07/24 14:54:27;;;;;;;9.50;7.08;;;;;;;;;;1729422;83;21055;-67
2022/07/24 14:56:53;;;;;;;8.05;7.25;;;;;;;;;;1728698;82;21534;-66
2022/07/24 14:59:19;;;;;;;10.40;7.60;;;;;;;;;;1726468;83;21031;-66
2022/07/24 15:01:45;;;;;;;8.68;6.62;;;;;;;;;;1725512;81;21059;-66
2022/07/24 15:04:12;;;;;;;7.95;6.40;;;;;;;;;;1730170;83;21071;-66